Quincy, CA

9:57 AM PDT on April 01, 2015 (GMT -0700)
RAWS | | Change Station
CLOSE
Current Station
Personal Weather Station
Location: Quincy, CA
Elevation: 3651 ft
Nearby Weather Stations

Elev 3651 ft 39.97 °N, 120.94 °W | Updated 42 minutes ago

Clear
Clear
35 °F
Feels Like 35 °F
N
2
Wind Variable Wind from ESE
Gusts 4.0 mph

Today
High -- | Low -- °F
--% Chance of Precip.
Yesterday
High -- | Low -- °F
Precip. -- in
6:47 AM 7:27 PM
Waxing Gibbous, 93% visible
Pressure 30.07 in
Visibility 10.0 miles
Clouds Clear
Windchill 35 °F
Dew Point 26 °F
Humidity 69%
Rainfall in
Snow Depth Not available.
UV 4 out of 12
Pollen 10.20 out of 12
Air Quality Not available.
Flu Activity Not available.
METAR KBLU 011652Z AUTO VRB04KT 10SM CLR 07/M12 A3012 RMK AO2 SLP181 T00671117

More Conditions Fewer Conditions

Pressure 30.07 in
Visibility 10.0 miles
Clouds Clear
Windchill 35 °F
Dew Point 26 °F
Humidity 69%
Rainfall in
Snow Depth Not available.
UV 4 out of 12
Pollen 10.20 out of 12
Air Quality Not available.
Flu Activity Not available.
METAR KBLU 011652Z AUTO VRB04KT 10SM CLR 07/M12 A3012 RMK AO2 SLP181 T00671117

More Conditions Fewer Conditions

10-Day Weather Forecast

Almanac

Astronomy

Apr. 01, 2015 Rise Set
Actual Time
Civil Twilight
Nautical Twilight
Astronomical Twilight
Moon
Length of Visible Light
Length of Day
Tomorrow will be .
, % of the Moon is Illuminated

Today's Extremes

State Highs State Lows

Community

WunderPhotos

Upload Photos

1,810,005 photos uploaded!

WunderBlogs® & News

Nearby

Air Quality

  Air Quality AQ Index Pollutant
Not available.

Snow Depth

Station Depth Elevation

Earthquake Activity

City Distance Mag. Time & Date
Minimum magnitude displayed is 2.5.

Coastal Water Temperatures

Place Temperature

Stations

Nearby Weather Stations

Station Location Temp. Windchill Dew Point Humidity Wind Precip. Elev Updated Type